Time;durP1;ratioP1;P1;durP2;ratioP2;P2;SDS_P1;SDS_P2;PMS_P1;PMS_P2;Temp;Humidity;BMP_temperature;BMP_pressure;BME280_temperature;BME280_humidity;BME280_pressure;Samples;Min_cycle;Max_cycle;Signal;HPM_P1;HPM_P2
2022/03/13 00:02:04;;;;;;;18.27;12.25;;;;;;;;;;5091298;28;20039;-71
2022/03/13 00:04:30;;;;;;;19.25;12.18;;;;;;;;;;5086273;28;20036;-72
2022/03/13 00:06:56;;;;;;;17.73;12.25;;;;;;;;;;5089022;28;20379;-73
2022/03/13 00:09:22;;;;;;;20.60;11.98;;;;;;;;;;5071917;28;20038;-72
2022/03/13 00:11:54;;;;;;;16.35;11.90;;;;;;;;;;5072064;28;20195;-73
2022/03/13 00:14:25;;;;;;;23.77;12.50;;;;;;;;;;5075751;28;20028;-72
2022/03/13 00:16:52;;;;;;;17.63;12.00;;;;;;;;;;5086087;28;20107;-72
2022/03/13 00:19:22;;;;;;;17.50;12.05;;;;;;;;;;5081087;28;20028;-72
2022/03/13 00:21:50;;;;;;;19.30;11.60;;;;;;;;;;5081795;28;20036;-72
2022/03/13 00:24:20;;;;;;;20.08;12.20;;;;;;;;;;5061420;28;20033;-72
2022/03/13 00:26:51;;;;;;;17.55;12.05;;;;;;;;;;5076027;28;20090;-73
2022/03/13 00:29:17;;;;;;;21.52;13.05;;;;;;;;;;5081453;28;20075;-73
2022/03/13 00:31:44;;;;;;;22.75;12.60;;;;;;;;;;5076435;28;20039;-73
2022/03/13 00:34:10;;;;;;;18.60;12.50;;;;;;;;;;5086558;28;20013;-73
2022/03/13 00:36:37;;;;;;;21.95;13.40;;;;;;;;;;5083261;28;20399;-72
2022/03/13 00:39:03;;;;;;;18.73;12.60;;;;;;;;;;5073041;28;20045;-73
2022/03/13 00:41:29;;;;;;;18.50;13.05;;;;;;;;;;5071837;28;20036;-73
2022/03/13 00:43:55;;;;;;;18.35;12.55;;;;;;;;;;5081424;28;20032;-72
2022/03/13 00:46:21;;;;;;;17.67;12.40;;;;;;;;;;5083060;28;20044;-73
2022/03/13 00:48:48;;;;;;;19.35;12.70;;;;;;;;;;5081095;28;20082;-73
2022/03/13 00:51:15;;;;;;;18.00;11.85;;;;;;;;;;5083213;28;20056;-73
2022/03/13 00:53:41;;;;;;;18.75;12.82;;;;;;;;;;5071530;28;20035;-72
2022/03/13 00:56:08;;;;;;;21.85;13.13;;;;;;;;;;5087435;28;20442;-73
2022/03/13 00:58:34;;;;;;;18.05;12.52;;;;;;;;;;5056890;28;20119;-72
2022/03/13 01:01:00;;;;;;;19.25;13.57;;;;;;;;;;5078728;28;20082;-73
2022/03/13 01:03:35;;;;;;;18.10;13.38;;;;;;;;;;5084167;28;20033;-73
2022/03/13 01:06:01;;;;;;;18.95;12.55;;;;;;;;;;5063115;28;20062;-73
2022/03/13 01:08:27;;;;;;;20.88;13.90;;;;;;;;;;5076772;28;20024;-72
2022/03/13 01:10:54;;;;;;;19.77;12.88;;;;;;;;;;5083701;28;20388;-73
2022/03/13 01:13:20;;;;;;;19.83;12.35;;;;;;;;;;5079529;28;20603;-72
2022/03/13 01:15:49;;;;;;;21.92;12.93;;;;;;;;;;5080050;28;20460;-73
2022/03/13 01:18:15;;;;;;;19.38;12.50;;;;;;;;;;5076145;28;20033;-72
2022/03/13 01:20:41;;;;;;;21.40;13.13;;;;;;;;;;5062049;28;20424;-73
2022/03/13 01:23:11;;;;;;;17.23;12.43;;;;;;;;;;5090855;28;20032;-72
2022/03/13 01:25:38;;;;;;;23.50;13.00;;;;;;;;;;5075823;28;20566;-73
2022/03/13 01:28:04;;;;;;;18.02;12.77;;;;;;;;;;5080888;28;20126;-73
2022/03/13 01:30:30;;;;;;;22.35;14.18;;;;;;;;;;5079407;28;20023;-73
2022/03/13 01:32:56;;;;;;;16.75;12.85;;;;;;;;;;5081550;28;20090;-73
2022/03/13 01:35:23;;;;;;;18.77;12.55;;;;;;;;;;5081902;28;20043;-73
2022/03/13 01:37:50;;;;;;;20.55;13.13;;;;;;;;;;5078525;28;20483;-73
2022/03/13 01:40:23;;;;;;;16.98;11.85;;;;;;;;;;5085783;28;20530;-73
2022/03/13 01:42:50;;;;;;;20.92;12.55;;;;;;;;;;5084253;28;20399;-73
2022/03/13 01:45:18;;;;;;;20.27;13.10;;;;;;;;;;5086868;28;20473;-73
2022/03/13 01:47:44;;;;;;;17.52;12.73;;;;;;;;;;5073588;28;20547;-73
2022/03/13 01:50:11;;;;;;;21.80;14.02;;;;;;;;;;5056818;28;20040;-73
2022/03/13 01:52:39;;;;;;;20.35;13.57;;;;;;;;;;5078009;28;20064;-73
2022/03/13 01:55:05;;;;;;;20.83;13.43;;;;;;;;;;5088270;28;20028;-73
2022/03/13 01:57:32;;;;;;;18.02;12.35;;;;;;;;;;5079565;28;20043;-73
2022/03/13 01:59:59;;;;;;;18.58;12.50;;;;;;;;;;5093033;28;20028;-73
2022/03/13 02:02:25;;;;;;;17.40;12.13;;;;;;;;;;5088351;28;20507;-73
2022/03/13 02:04:53;;;;;;;16.67;11.98;;;;;;;;;;5090707;28;20032;-73
2022/03/13 02:07:19;;;;;;;19.48;12.90;;;;;;;;;;5086095;28;20032;-73
2022/03/13 02:09:47;;;;;;;18.42;12.63;;;;;;;;;;5082753;28;20025;-73
2022/03/13 02:12:13;;;;;;;20.48;13.00;;;;;;;;;;5080954;28;20064;-73
2022/03/13 02:14:39;;;;;;;21.38;12.32;;;;;;;;;;5092942;28;20028;-73
2022/03/13 02:17:05;;;;;;;28.83;13.45;;;;;;;;;;5083314;28;20067;-73
2022/03/13 02:19:32;;;;;;;18.95;12.70;;;;;;;;;;5072635;28;20025;-73
2022/03/13 02:21:59;;;;;;;17.80;12.38;;;;;;;;;;5079281;28;20044;-73
2022/03/13 02:24:26;;;;;;;19.05;13.18;;;;;;;;;;5079112;28;20038;-73
2022/03/13 02:26:58;;;;;;;19.48;12.30;;;;;;;;;;5077101;28;20199;-73
2022/03/13 02:29:25;;;;;;;20.45;12.63;;;;;;;;;;5082056;28;20079;-73
2022/03/13 02:31:51;;;;;;;19.35;12.88;;;;;;;;;;5083963;28;20640;-73
2022/03/13 02:34:18;;;;;;;22.27;12.18;;;;;;;;;;5087442;28;20029;-73
2022/03/13 02:36:44;;;;;;;19.27;11.73;;;;;;;;;;5089559;28;20028;-73
2022/03/13 02:39:11;;;;;;;17.33;11.90;;;;;;;;;;5090244;28;20040;-73
2022/03/13 02:41:40;;;;;;;19.63;12.68;;;;;;;;;;5074538;28;20058;-73
2022/03/13 02:44:07;;;;;;;16.27;11.55;;;;;;;;;;5083415;28;20381;-73
2022/03/13 02:46:48;;;;;;;25.52;13.88;;;;;;;;;;5081777;28;20048;-73
2022/03/13 02:49:19;;;;;;;22.05;13.00;;;;;;;;;;5076270;28;20020;-73
2022/03/13 02:51:47;;;;;;;20.45;12.88;;;;;;;;;;5075039;28;20110;-73
2022/03/13 02:54:15;;;;;;;20.77;13.07;;;;;;;;;;5084168;28;20119;-73
2022/03/13 02:56:41;;;;;;;17.33;12.00;;;;;;;;;;5088987;28;20515;-73
2022/03/13 02:59:07;;;;;;;19.58;12.15;;;;;;;;;;5077658;28;20028;-73
2022/03/13 03:01:34;;;;;;;19.15;12.43;;;;;;;;;;5087233;28;20024;-73
2022/03/13 03:04:01;;;;;;;17.40;11.93;;;;;;;;;;5081000;28;20400;-73
2022/03/13 03:06:31;;;;;;;22.83;11.60;;;;;;;;;;5082750;28;20119;-73
2022/03/13 03:08:57;;;;;;;18.58;12.45;;;;;;;;;;5071826;28;20044;-73
2022/03/13 03:11:23;;;;;;;14.88;11.52;;;;;;;;;;5080057;28;20032;-73
2022/03/13 03:13:49;;;;;;;24.08;13.02;;;;;;;;;;5083518;28;20047;-73
2022/03/13 03:16:15;;;;;;;17.48;12.15;;;;;;;;;;5082766;28;20102;-73
2022/03/13 03:18:42;;;;;;;17.00;12.25;;;;;;;;;;5073146;28;20033;-72
2022/03/13 03:21:08;;;;;;;18.85;11.63;;;;;;;;;;5084662;28;20392;-73
2022/03/13 03:23:34;;;;;;;19.85;12.50;;;;;;;;;;5072014;28;20500;-73
2022/03/13 03:26:00;;;;;;;17.77;12.38;;;;;;;;;;5073299;28;20032;-73
2022/03/13 03:28:26;;;;;;;18.77;12.02;;;;;;;;;;5083799;28;20087;-73
2022/03/13 03:30:53;;;;;;;15.95;11.27;;;;;;;;;;5073432;28;20012;-73
2022/03/13 03:33:19;;;;;;;16.13;11.10;;;;;;;;;;5071023;28;20027;-73
2022/03/13 03:35:45;;;;;;;18.02;12.10;;;;;;;;;;5086044;28;20126;-73
2022/03/13 03:38:11;;;;;;;18.70;11.88;;;;;;;;;;5074398;28;20037;-73
2022/03/13 03:40:37;;;;;;;14.27;11.02;;;;;;;;;;5073497;28;20056;-72
2022/03/13 03:43:04;;;;;;;19.50;11.55;;;;;;;;;;5053964;28;20488;-72
2022/03/13 03:45:31;;;;;;;16.55;11.63;;;;;;;;;;5086649;28;20077;-72
2022/03/13 03:47:57;;;;;;;15.45;10.90;;;;;;;;;;5077121;28;20520;-73
2022/03/13 03:50:23;;;;;;;15.90;10.63;;;;;;;;;;5081223;28;20039;-73
2022/03/13 03:52:55;;;;;;;19.92;11.95;;;;;;;;;;5080052;28;20064;-73
2022/03/13 03:55:21;;;;;;;14.43;10.77;;;;;;;;;;5063946;28;20086;-73
2022/03/13 03:57:47;;;;;;;15.32;11.18;;;;;;;;;;5071232;28;20775;-73
2022/03/13 04:00:14;;;;;;;14.48;10.73;;;;;;;;;;5081998;28;20031;-73
2022/03/13 04:02:41;;;;;;;20.83;11.40;;;;;;;;;;5091018;28;20173;-73
2022/03/13 04:05:08;;;;;;;14.77;10.85;;;;;;;;;;5080460;28;20031;-73
2022/03/13 04:07:36;;;;;;;16.17;11.20;;;;;;;;;;5080015;28;20028;-73
2022/03/13 04:10:02;;;;;;;20.35;11.63;;;;;;;;;;5078629;28;20024;-73
2022/03/13 04:12:29;;;;;;;16.30;12.00;;;;;;;;;;5081500;28;20107;-73
2022/03/13 04:14:55;;;;;;;14.90;11.60;;;;;;;;;;5077061;28;20123;-73
2022/03/13 04:17:21;;;;;;;17.15;11.02;;;;;;;;;;5071142;28;20476;-73
2022/03/13 04:19:47;;;;;;;21.90;12.80;;;;;;;;;;5079295;28;20056;-73
2022/03/13 04:22:15;;;;;;;17.58;12.10;;;;;;;;;;5085087;28;20032;-74
2022/03/13 04:24:41;;;;;;;18.42;11.18;;;;;;;;;;5091462;28;20032;-74
2022/03/13 04:27:07;;;;;;;19.02;11.45;;;;;;;;;;5080526;28;20055;-73
2022/03/13 04:29:34;;;;;;;18.38;12.25;;;;;;;;;;5070990;28;20044;-74
2022/03/13 04:32:02;;;;;;;16.88;11.55;;;;;;;;;;5074858;28;20031;-73
2022/03/13 04:34:29;;;;;;;20.70;12.00;;;;;;;;;;5076559;28;20032;-73
2022/03/13 04:36:55;;;;;;;19.42;12.02;;;;;;;;;;5076532;28;20488;-75
2022/03/13 04:39:21;;;;;;;17.15;11.57;;;;;;;;;;5079517;28;20040;-73
2022/03/13 04:41:47;;;;;;;17.95;12.15;;;;;;;;;;5074480;28;20028;-73
2022/03/13 04:44:13;;;;;;;18.25;12.52;;;;;;;;;;5071292;28;20464;-73
2022/03/13 04:46:39;;;;;;;19.10;13.30;;;;;;;;;;5078369;28;20055;-73
2022/03/13 04:49:06;;;;;;;18.10;12.45;;;;;;;;;;5089412;28;20102;-74
2022/03/13 04:51:32;;;;;;;18.55;13.15;;;;;;;;;;5067915;28;20059;-74
2022/03/13 04:53:58;;;;;;;20.88;12.32;;;;;;;;;;5088009;28;20365;-74
2022/03/13 04:56:24;;;;;;;24.75;14.05;;;;;;;;;;5079172;28;20039;-74
2022/03/13 04:58:50;;;;;;;18.25;12.15;;;;;;;;;;5085785;28;20028;-74
2022/03/13 05:01:19;;;;;;;20.92;12.20;;;;;;;;;;5064475;28;20044;-74
2022/03/13 05:03:45;;;;;;;20.08;13.73;;;;;;;;;;5077692;28;20387;-74
2022/03/13 05:06:11;;;;;;;20.65;12.35;;;;;;;;;;5084566;28;20032;-73
2022/03/13 05:08:37;;;;;;;19.17;12.95;;;;;;;;;;5070362;28;20024;-73
2022/03/13 05:11:07;;;;;;;20.70;13.00;;;;;;;;;;5072802;28;20501;-73
2022/03/13 05:13:33;;;;;;;18.05;12.30;;;;;;;;;;5069056;28;20044;-73
2022/03/13 05:15:59;;;;;;;21.38;12.35;;;;;;;;;;5077532;28;20036;-73
2022/03/13 05:18:25;;;;;;;19.92;12.52;;;;;;;;;;5080976;28;20549;-73
2022/03/13 05:20:52;;;;;;;18.23;13.15;;;;;;;;;;5045195;28;20052;-73
2022/03/13 05:23:18;;;;;;;20.38;12.70;;;;;;;;;;5082442;28;20491;-73
2022/03/13 05:25:44;;;;;;;19.42;12.27;;;;;;;;;;5078740;28;20393;-73
2022/03/13 05:28:10;;;;;;;16.60;12.15;;;;;;;;;;5066592;28;20028;-73
2022/03/13 05:30:37;;;;;;;21.40;11.77;;;;;;;;;;5085419;28;20052;-72
2022/03/13 05:33:04;;;;;;;17.33;12.00;;;;;;;;;;5081518;28;20044;-72
2022/03/13 05:35:30;;;;;;;21.33;13.75;;;;;;;;;;5085815;28;20040;-72
2022/03/13 05:37:56;;;;;;;18.35;12.57;;;;;;;;;;5087185;28;20032;-72
2022/03/13 05:40:23;;;;;;;18.98;12.43;;;;;;;;;;5094329;28;20028;-72
2022/03/13 05:42:52;;;;;;;17.15;11.82;;;;;;;;;;5075548;28;20472;-72
2022/03/13 05:45:20;;;;;;;17.55;12.45;;;;;;;;;;5093650;28;20114;-72
2022/03/13 05:47:50;;;;;;;21.70;13.05;;;;;;;;;;5069317;28;20093;-71
2022/03/13 05:50:17;;;;;;;18.60;13.00;;;;;;;;;;5068155;28;20044;-73
2022/03/13 05:52:44;;;;;;;18.73;12.55;;;;;;;;;;5088734;28;20463;-72
2022/03/13 05:55:10;;;;;;;17.80;12.63;;;;;;;;;;5084710;28;20025;-72
2022/03/13 05:57:36;;;;;;;16.38;11.82;;;;;;;;;;5083153;28;20024;-72
2022/03/13 06:00:08;;;;;;;18.40;13.13;;;;;;;;;;5076378;28;20103;-71
2022/03/13 06:02:37;;;;;;;23.30;14.53;;;;;;;;;;5081590;28;20044;-73
2022/03/13 06:05:03;;;;;;;28.58;18.35;;;;;;;;;;5078442;28;20100;-73
2022/03/13 06:07:29;;;;;;;21.58;13.00;;;;;;;;;;5080348;28;20670;-72
2022/03/13 06:09:57;;;;;;;19.05;12.48;;;;;;;;;;5080082;28;20055;-72
2022/03/13 06:12:24;;;;;;;18.10;11.38;;;;;;;;;;5084032;28;20445;-72
2022/03/13 06:14:50;;;;;;;23.08;12.10;;;;;;;;;;5079786;28;20515;-72
2022/03/13 06:17:16;;;;;;;34.30;11.98;;;;;;;;;;5065967;28;20514;-73
2022/03/13 06:19:42;;;;;;;16.80;12.35;;;;;;;;;;5076877;28;20361;-72
2022/03/13 06:22:12;;;;;;;18.85;12.75;;;;;;;;;;5084744;28;20032;-72
2022/03/13 06:24:38;;;;;;;17.45;12.25;;;;;;;;;;5088779;28;20024;-73
2022/03/13 06:27:10;;;;;;;15.25;12.13;;;;;;;;;;5086442;28;20032;-72
2022/03/13 06:29:36;;;;;;;21.40;12.60;;;;;;;;;;5081011;28;20052;-73
2022/03/13 06:32:03;;;;;;;30.02;18.30;;;;;;;;;;5092716;28;20028;-74
2022/03/13 06:34:29;;;;;;;26.90;16.45;;;;;;;;;;5088650;28;20032;-72
2022/03/13 06:36:55;;;;;;;15.40;11.32;;;;;;;;;;5088176;28;20032;-72
2022/03/13 06:39:22;;;;;;;23.02;11.95;;;;;;;;;;5078744;28;20021;-72
2022/03/13 06:41:48;;;;;;;18.67;11.80;;;;;;;;;;5100109;28;20159;-73
2022/03/13 06:44:14;;;;;;;16.48;11.52;;;;;;;;;;5071001;28;20123;-72
2022/03/13 06:46:40;;;;;;;18.20;12.02;;;;;;;;;;5085254;28;20050;-73
2022/03/13 06:49:06;;;;;;;23.00;12.80;;;;;;;;;;5081235;28;20040;-72
2022/03/13 06:51:33;;;;;;;20.80;12.55;;;;;;;;;;5090335;28;20044;-72
2022/03/13 06:53:59;;;;;;;19.92;13.32;;;;;;;;;;5083877;28;20040;-72
2022/03/13 06:56:25;;;;;;;19.63;12.23;;;;;;;;;;5080674;28;20029;-72
2022/03/13 06:58:52;;;;;;;19.30;12.73;;;;;;;;;;5088475;28;20032;-72
2022/03/13 07:01:18;;;;;;;20.30;11.85;;;;;;;;;;5076422;28;20029;-72
2022/03/13 07:03:45;;;;;;;19.67;13.00;;;;;;;;;;5073306;28;20036;-72
2022/03/13 07:06:11;;;;;;;19.30;13.57;;;;;;;;;;5088468;28;20107;-73
2022/03/13 07:08:37;;;;;;;18.35;12.40;;;;;;;;;;5083965;28;20067;-73
2022/03/13 07:11:03;;;;;;;18.77;12.65;;;;;;;;;;5086060;28;20036;-72
2022/03/13 07:13:32;;;;;;;48.75;27.75;;;;;;;;;;5082645;28;20050;-73
2022/03/13 07:16:03;;;;;;;26.48;17.83;;;;;;;;;;5074698;28;20036;-72
2022/03/13 07:18:29;;;;;;;21.55;12.98;;;;;;;;;;5072069;28;20061;-72
2022/03/13 07:20:55;;;;;;;26.10;12.35;;;;;;;;;;5079183;28;20040;-72
2022/03/13 07:23:21;;;;;;;16.42;11.35;;;;;;;;;;5079312;28;20027;-72
2022/03/13 07:25:48;;;;;;;19.02;12.50;;;;;;;;;;5084262;28;20027;-73
2022/03/13 07:28:14;;;;;;;23.95;12.05;;;;;;;;;;5084096;28;20024;-72
2022/03/13 07:30:40;;;;;;;17.25;10.98;;;;;;;;;;5069215;28;20072;-73
2022/03/13 07:33:06;;;;;;;18.83;13.15;;;;;;;;;;5072159;28;20047;-73
2022/03/13 07:35:32;;;;;;;17.55;12.48;;;;;;;;;;5080599;28;20032;-74
2022/03/13 07:37:58;;;;;;;19.70;12.32;;;;;;;;;;5083116;28;20066;-72
2022/03/13 07:40:25;;;;;;;20.02;13.02;;;;;;;;;;5082913;28;20039;-72
2022/03/13 07:42:51;;;;;;;20.05;14.75;;;;;;;;;;5079689;28;20119;-75
2022/03/13 07:45:17;;;;;;;29.92;19.67;;;;;;;;;;5074349;28;20556;-73
2022/03/13 07:47:43;;;;;;;20.00;14.63;;;;;;;;;;5075057;28;20020;-72
2022/03/13 07:50:09;;;;;;;21.63;13.13;;;;;;;;;;5070787;28;20392;-72
2022/03/13 07:52:35;;;;;;;17.88;11.48;;;;;;;;;;5077569;28;20506;-73
2022/03/13 07:55:01;;;;;;;18.80;12.10;;;;;;;;;;5061148;28;20051;-73
2022/03/13 07:57:28;;;;;;;17.75;11.73;;;;;;;;;;5087663;28;20062;-72
2022/03/13 07:59:54;;;;;;;16.63;10.88;;;;;;;;;;5073659;28;20033;-72
2022/03/13 08:02:21;;;;;;;20.58;11.75;;;;;;;;;;5065245;28;20040;-73
2022/03/13 08:04:47;;;;;;;16.75;11.80;;;;;;;;;;5057535;28;20048;-73
2022/03/13 08:07:13;;;;;;;14.10;11.07;;;;;;;;;;5065099;28;20075;-74
2022/03/13 08:09:39;;;;;;;17.00;11.35;;;;;;;;;;5073314;28;20123;-75
2022/03/13 08:12:05;;;;;;;17.20;11.52;;;;;;;;;;5085334;28;20037;-74
2022/03/13 08:14:31;;;;;;;16.85;11.32;;;;;;;;;;5062668;28;20024;-73
2022/03/13 08:16:58;;;;;;;25.38;12.00;;;;;;;;;;5083331;28;20368;-72
2022/03/13 08:19:24;;;;;;;17.77;10.68;;;;;;;;;;5081650;28;20036;-72
2022/03/13 08:21:50;;;;;;;16.08;11.77;;;;;;;;;;5075188;28;20082;-72
2022/03/13 08:24:17;;;;;;;19.00;11.15;;;;;;;;;;5066046;28;20529;-72
2022/03/13 08:26:43;;;;;;;15.40;11.00;;;;;;;;;;5088592;28;20081;-73
2022/03/13 08:29:10;;;;;;;17.45;12.00;;;;;;;;;;5085351;28;20052;-72
2022/03/13 08:31:36;;;;;;;19.77;10.40;;;;;;;;;;5079905;28;20376;-72
2022/03/13 08:34:07;;;;;;;15.38;10.00;;;;;;;;;;5083809;28;20032;-73
2022/03/13 08:36:33;;;;;;;17.17;11.07;;;;;;;;;;5078842;28;20032;-72
2022/03/13 08:38:59;;;;;;;26.42;14.32;;;;;;;;;;5052336;28;20044;-74
2022/03/13 08:41:25;;;;;;;19.27;12.80;;;;;;;;;;5055074;28;20468;-73
2022/03/13 08:43:51;;;;;;;22.98;13.88;;;;;;;;;;5078442;28;20468;-74
2022/03/13 08:46:17;;;;;;;17.10;10.70;;;;;;;;;;5061320;28;20669;-74
2022/03/13 08:48:44;;;;;;;16.40;10.27;;;;;;;;;;5078641;28;20036;-74
2022/03/13 08:51:12;;;;;;;14.40;10.13;;;;;;;;;;5084434;28;20127;-74
2022/03/13 08:53:38;;;;;;;22.88;12.43;;;;;;;;;;5078840;28;20060;-73
2022/03/13 08:56:04;;;;;;;18.70;11.25;;;;;;;;;;5081880;28;20055;-73
2022/03/13 08:58:30;;;;;;;14.30;10.40;;;;;;;;;;5076626;28;20028;-74
2022/03/13 09:00:57;;;;;;;16.15;10.68;;;;;;;;;;5091631;28;20521;-73
2022/03/13 09:03:26;;;;;;;16.10;10.10;;;;;;;;;;5084996;28;20078;-72
2022/03/13 09:05:53;;;;;;;65.57;36.30;;;;;;;;;;5082974;28;20059;-74
2022/03/13 09:08:19;;;;;;;19.00;12.30;;;;;;;;;;5087411;28;20024;-74
2022/03/13 09:10:45;;;;;;;25.52;14.85;;;;;;;;;;5094973;28;20029;-74
2022/03/13 09:13:13;;;;;;;17.83;10.63;;;;;;;;;;5086364;28;20036;-73
2022/03/13 09:15:39;;;;;;;16.73;10.77;;;;;;;;;;5086190;28;20030;-73
2022/03/13 09:18:06;;;;;;;14.27;10.18;;;;;;;;;;5080751;28;20024;-73
2022/03/13 09:20:32;;;;;;;19.13;9.77;;;;;;;;;;5088308;28;20028;-72
2022/03/13 09:22:58;;;;;;;13.80;10.45;;;;;;;;;;5088211;28;20036;-72
2022/03/13 09:25:24;;;;;;;16.33;10.50;;;;;;;;;;5068973;28;20041;-72
2022/03/13 09:27:52;;;;;;;21.75;11.15;;;;;;;;;;5079398;28;20020;-73
2022/03/13 09:30:18;;;;;;;16.92;10.63;;;;;;;;;;5093890;28;20080;-73
2022/03/13 09:32:44;;;;;;;13.98;9.85;;;;;;;;;;5088942;28;20039;-72
2022/03/13 09:35:11;;;;;;;17.05;10.73;;;;;;;;;;5088200;28;20035;-72
2022/03/13 09:37:39;;;;;;;19.10;10.52;;;;;;;;;;5087753;28;20029;-72
2022/03/13 09:40:05;;;;;;;14.30;10.02;;;;;;;;;;5084945;28;20064;-72
2022/03/13 09:42:31;;;;;;;17.70;10.20;;;;;;;;;;5084773;28;20494;-72
2022/03/13 09:44:59;;;;;;;13.77;10.45;;;;;;;;;;5080392;28;20402;-72
2022/03/13 09:47:26;;;;;;;15.52;10.52;;;;;;;;;;5087909;28;20025;-73
2022/03/13 09:49:52;;;;;;;14.07;10.25;;;;;;;;;;5061492;28;20051;-73
2022/03/13 09:52:19;;;;;;;18.80;13.18;;;;;;;;;;5090341;28;20538;-73
2022/03/13 09:54:45;;;;;;;16.67;10.95;;;;;;;;;;5084550;28;20036;-73
2022/03/13 09:57:11;;;;;;;13.25;10.57;;;;;;;;;;5085533;28;20020;-73
2022/03/13 09:59:37;;;;;;;15.90;10.57;;;;;;;;;;5089280;28;20035;-73
2022/03/13 10:02:07;;;;;;;15.85;11.07;;;;;;;;;;5084344;28;20090;-73
2022/03/13 10:04:33;;;;;;;12.73;9.77;;;;;;;;;;5082237;28;20044;-73
2022/03/13 10:07:10;;;;;;;15.48;10.32;;;;;;;;;;5080677;28;20372;-73
2022/03/13 10:09:37;;;;;;;16.60;10.55;;;;;;;;;;5059393;28;20028;-73
2022/03/13 10:12:09;;;;;;;13.52;10.32;;;;;;;;;;5082113;28;20032;-73
2022/03/13 10:14:38;;;;;;;16.00;10.18;;;;;;;;;;5078524;28;20029;-73
2022/03/13 10:17:05;;;;;;;14.95;10.93;;;;;;;;;;5076049;28;20059;-73
2022/03/13 10:19:31;;;;;;;13.20;10.02;;;;;;;;;;5079446;28;20028;-73
2022/03/13 10:22:07;;;;;;;14.10;10.30;;;;;;;;;;5086389;28;20021;-74
2022/03/13 10:24:44;;;;;;;14.77;10.20;;;;;;;;;;5091490;28;20053;-74
2022/03/13 10:27:11;;;;;;;13.77;10.48;;;;;;;;;;5064424;28;20438;-74
2022/03/13 10:29:38;;;;;;;16.10;11.00;;;;;;;;;;5087580;28;20031;-73
2022/03/13 10:32:05;;;;;;;12.43;9.90;;;;;;;;;;5079173;28;20070;-74
2022/03/13 10:34:31;;;;;;;15.48;10.77;;;;;;;;;;5093353;28;20028;-73
2022/03/13 10:36:58;;;;;;;15.98;10.50;;;;;;;;;;5072941;28;20488;-74
2022/03/13 10:39:24;;;;;;;15.50;11.07;;;;;;;;;;5064083;28;20044;-73
2022/03/13 10:41:56;;;;;;;13.60;10.38;;;;;;;;;;5072918;28;20162;-72
2022/03/13 10:44:25;;;;;;;16.08;12.15;;;;;;;;;;5085493;28;20036;-72
2022/03/13 10:46:58;;;;;;;22.27;16.23;;;;;;;;;;5092134;28;20123;-72
2022/03/13 10:49:41;;;;;;;15.68;11.43;;;;;;;;;;5082404;28;20108;-72
2022/03/13 10:52:26;;;;;;;16.13;10.70;;;;;;;;;;5081369;28;20047;-72
2022/03/13 10:54:53;;;;;;;14.80;10.73;;;;;;;;;;5073149;28;20046;-72
2022/03/13 10:57:19;;;;;;;17.83;11.05;;;;;;;;;;5072953;28;20507;-72
2022/03/13 10:59:46;;;;;;;13.07;10.75;;;;;;;;;;5073065;28;20025;-73
2022/03/13 11:02:15;;;;;;;14.48;10.73;;;;;;;;;;5084369;28;20036;-73
2022/03/13 11:04:47;;;;;;;15.13;11.63;;;;;;;;;;5086276;28;20438;-73
2022/03/13 11:07:14;;;;;;;16.17;11.15;;;;;;;;;;5074126;28;20028;-72
2022/03/13 11:09:40;;;;;;;14.25;11.20;;;;;;;;;;5078356;28;20086;-73
2022/03/13 11:12:09;;;;;;;17.65;11.15;;;;;;;;;;5072388;28;20033;-72
2022/03/13 11:14:35;;;;;;;14.60;11.57;;;;;;;;;;5085114;28;20032;-72
2022/03/13 11:17:02;;;;;;;17.70;11.18;;;;;;;;;;5079192;28;20036;-73
2022/03/13 11:19:29;;;;;;;16.73;11.32;;;;;;;;;;5070538;28;20077;-72
2022/03/13 11:21:55;;;;;;;16.63;11.70;;;;;;;;;;5081520;28;20582;-72
2022/03/13 11:24:23;;;;;;;15.18;11.45;;;;;;;;;;5074503;28;20064;-72
2022/03/13 11:26:50;;;;;;;13.20;11.20;;;;;;;;;;5081890;28;20558;-72
2022/03/13 11:29:36;;;;;;;13.65;11.10;;;;;;;;;;5072396;28;20028;-72
2022/03/13 11:32:22;;;;;;;16.20;10.90;;;;;;;;;;5080850;28;20111;-71
2022/03/13 11:35:18;;;;;;;16.70;11.15;;;;;;;;;;5052864;27;2318152;-72
2022/03/13 11:37:45;;;;;;;14.77;11.27;;;;;;;;;;5124802;28;20026;-72
2022/03/13 11:40:12;;;;;;;14.90;11.85;;;;;;;;;;5121158;28;20027;-72
2022/03/13 11:42:47;;;;;;;15.43;9.98;;;;;;;;;;5113459;28;20066;-75
2022/03/13 11:45:34;;;;;;;21.20;14.63;;;;;;;;;;5124619;28;20055;-74
2022/03/13 11:48:08;;;;;;;18.33;11.15;;;;;;;;;;5113061;27;20103;-78
2022/03/13 11:50:52;;;;;;;14.30;10.48;;;;;;;;;;5124911;28;20522;-72
2022/03/13 11:53:19;;;;;;;17.83;11.48;;;;;;;;;;5126613;28;20044;-74
2022/03/13 11:55:58;;;;;;;12.25;9.73;;;;;;;;;;5129194;27;20730;-74
2022/03/13 11:58:41;;;;;;;15.23;10.40;;;;;;;;;;5127405;27;20384;-73
2022/03/13 12:01:20;;;;;;;13.73;10.38;;;;;;;;;;5116490;28;20036;-73
2022/03/13 12:04:05;;;;;;;14.85;11.05;;;;;;;;;;5109768;28;20037;-73
2022/03/13 12:06:47;;;;;;;11.93;8.82;;;;;;;;;;5109162;28;20035;-73
2022/03/13 12:09:17;;;;;;;15.80;10.00;;;;;;;;;;5124678;28;20832;-73
2022/03/13 12:11:46;;;;;;;14.13;10.00;;;;;;;;;;5114855;28;20031;-73
2022/03/13 12:14:15;;;;;;;13.07;9.90;;;;;;;;;;5124353;28;20047;-73
2022/03/13 12:16:43;;;;;;;13.57;10.48;;;;;;;;;;5124104;27;20034;-73
2022/03/13 12:19:10;;;;;;;14.25;9.98;;;;;;;;;;5126843;28;20076;-73
2022/03/13 12:21:36;;;;;;;12.77;9.48;;;;;;;;;;5115890;27;20467;-73
2022/03/13 12:24:16;;;;;;;11.77;10.07;;;;;;;;;;5108320;28;20054;-73
2022/03/13 12:26:46;;;;;;;11.60;9.18;;;;;;;;;;5115487;28;20032;-73
2022/03/13 12:29:19;;;;;;;13.90;9.40;;;;;;;;;;5126415;28;20046;-73
2022/03/13 12:31:47;;;;;;;13.88;10.18;;;;;;;;;;5118197;28;20024;-73
2022/03/13 12:34:14;;;;;;;11.90;8.70;;;;;;;;;;5107927;28;20047;-73
2022/03/13 12:36:41;;;;;;;8.65;7.45;;;;;;;;;;5122118;28;20086;-73
2022/03/13 12:39:14;;;;;;;10.85;7.25;;;;;;;;;;5127171;28;20027;-73
2022/03/13 12:41:43;;;;;;;15.57;7.88;;;;;;;;;;5124532;28;20479;-74
2022/03/13 12:44:09;;;;;;;11.68;7.28;;;;;;;;;;5123160;28;20043;-73
2022/03/13 12:46:36;;;;;;;11.43;7.63;;;;;;;;;;5102601;28;20028;-74
2022/03/13 12:49:07;;;;;;;18.00;7.60;;;;;;;;;;5106064;28;20028;-74
2022/03/13 12:51:41;;;;;;;8.45;7.43;;;;;;;;;;5107082;28;20028;-74
2022/03/13 12:54:23;;;;;;;10.00;7.47;;;;;;;;;;5114710;28;20102;-74
2022/03/13 12:56:51;;;;;;;12.50;8.05;;;;;;;;;;5096241;28;20032;-74
2022/03/13 12:59:29;;;;;;;8.63;6.78;;;;;;;;;;5093975;28;20554;-73
2022/03/13 13:02:09;;;;;;;9.57;7.88;;;;;;;;;;5108680;28;20727;-74
2022/03/13 13:04:36;;;;;;;12.32;8.13;;;;;;;;;;5095834;28;20024;-73
2022/03/13 13:07:04;;;;;;;10.45;8.13;;;;;;;;;;5099058;28;20032;-73
2022/03/13 13:09:31;;;;;;;13.10;8.90;;;;;;;;;;5093933;28;20111;-74
2022/03/13 13:11:58;;;;;;;10.35;8.02;;;;;;;;;;5094139;28;20107;-73
2022/03/13 13:14:25;;;;;;;12.45;8.80;;;;;;;;;;5103777;28;20082;-74
2022/03/13 13:16:51;;;;;;;10.88;7.75;;;;;;;;;;5107659;28;20031;-74
2022/03/13 13:19:19;;;;;;;11.93;7.95;;;;;;;;;;5107811;28;20032;-73
2022/03/13 13:21:56;;;;;;;10.15;8.15;;;;;;;;;;5102741;28;20519;-73
2022/03/13 13:24:35;;;;;;;10.75;7.57;;;;;;;;;;5097004;28;20032;-73
2022/03/13 13:27:06;;;;;;;9.07;7.25;;;;;;;;;;5113961;28;20027;-73
2022/03/13 13:29:36;;;;;;;10.65;7.90;;;;;;;;;;5101102;28;20043;-73
2022/03/13 13:32:18;;;;;;;10.05;7.90;;;;;;;;;;5109546;28;20038;-73
2022/03/13 13:35:02;;;;;;;10.70;8.10;;;;;;;;;;5094856;28;20200;-73
2022/03/13 13:37:29;;;;;;;9.60;7.82;;;;;;;;;;5106783;28;20066;-73
2022/03/13 13:40:21;;;;;;;11.73;8.50;;;;;;;;;;5105000;28;20028;-73
2022/03/13 13:42:54;;;;;;;10.80;8.85;;;;;;;;;;5100922;28;20036;-73
2022/03/13 13:45:23;;;;;;;9.25;7.45;;;;;;;;;;5112609;28;20046;-73
2022/03/13 13:47:52;;;;;;;11.93;8.38;;;;;;;;;;5101576;28;20028;-73
2022/03/13 13:50:18;;;;;;;13.52;8.38;;;;;;;;;;5091511;28;20418;-73
2022/03/13 13:52:44;;;;;;;10.80;8.13;;;;;;;;;;5107825;27;20036;-73
2022/03/13 13:55:23;;;;;;;18.77;8.85;;;;;;;;;;5113392;28;20027;-73
2022/03/13 13:58:09;;;;;;;11.68;8.30;;;;;;;;;;5111389;28;20090;-73
2022/03/13 14:00:35;;;;;;;12.18;9.10;;;;;;;;;;5108659;28;20382;-73
2022/03/13 14:03:01;;;;;;;12.02;8.70;;;;;;;;;;5111249;28;20036;-73
2022/03/13 14:05:27;;;;;;;13.90;9.27;;;;;;;;;;5084853;28;20032;-73
2022/03/13 14:07:53;;;;;;;11.10;8.93;;;;;;;;;;5097093;28;20467;-73
2022/03/13 14:10:19;;;;;;;12.25;9.25;;;;;;;;;;5096356;28;20051;-73
2022/03/13 14:12:48;;;;;;;12.25;9.18;;;;;;;;;;5092661;28;20480;-73
2022/03/13 14:15:14;;;;;;;14.38;9.25;;;;;;;;;;5111269;28;20028;-73
2022/03/13 14:17:40;;;;;;;13.48;8.55;;;;;;;;;;5107993;28;20471;-73
2022/03/13 14:20:07;;;;;;;14.20;9.15;;;;;;;;;;5104751;28;20024;-73
2022/03/13 14:22:33;;;;;;;11.27;8.00;;;;;;;;;;5109499;28;20085;-73
2022/03/13 14:24:59;;;;;;;10.13;8.30;;;;;;;;;;5100131;28;20490;-73